Time;durP1;ratioP1;P1;durP2;ratioP2;P2;SDS_P1;SDS_P2;PMS_P1;PMS_P2;Temp;Humidity;BMP_temperature;BMP_pressure;BME280_temperature;BME280_humidity;BME280_pressure;Samples;Min_cycle;Max_cycle;Signal;HPM_P1;HPM_P2
2021/03/15 00:03:32;;;;;;;15.40;6.88;;;;;;;5.07;100.00;100464.41;10180045;29;20090;-70
2021/03/15 00:08:34;;;;;;;11.45;5.60;;;;;;;5.08;100.00;100460.06;10177624;29;20052;-69
2021/03/15 00:13:36;;;;;;;14.63;5.68;;;;;;;5.11;100.00;100463.44;10177197;29;20463;-70
2021/03/15 00:18:37;;;;;;;12.07;6.63;;;;;;;5.15;100.00;100453.78;10176438;29;20115;-70
2021/03/15 00:23:38;;;;;;;18.40;6.93;;;;;;;5.15;100.00;100453.78;10177816;29;20493;-69
2021/03/15 00:28:40;;;;;;;18.60;7.05;;;;;;;5.16;100.00;100453.75;10176298;29;20378;-70
2021/03/15 00:33:41;;;;;;;14.05;7.45;;;;;;;5.11;100.00;100447.75;10177700;29;20044;-70
2021/03/15 00:38:52;;;;;;;18.63;8.38;;;;;;;5.12;100.00;100449.47;10176129;29;20096;-70
2021/03/15 00:43:53;;;;;;;22.63;8.35;;;;;;;5.11;100.00;100444.28;10176964;29;20040;-69
2021/03/15 00:48:54;;;;;;;20.30;7.90;;;;;;;5.16;100.00;100438.09;10176292;29;20059;-69
2021/03/15 00:53:55;;;;;;;17.05;8.40;;;;;;;5.09;100.00;100428.69;10184354;29;20048;-69
2021/03/15 00:59:01;;;;;;;19.60;9.05;;;;;;;5.14;100.00;100439.88;10184395;29;20059;-68
2021/03/15 01:04:15;;;;;;;13.30;7.97;;;;;;;5.16;100.00;100432.00;10184598;29;20044;-69
2021/03/15 01:09:32;;;;;;;25.35;10.15;;;;;;;5.17;100.00;100428.50;10183258;29;20135;-68
2021/03/15 01:14:34;;;;;;;20.27;9.25;;;;;;;5.07;100.00;100416.56;10183635;29;20052;-68
2021/03/15 01:19:44;;;;;;;17.63;8.48;;;;;;;5.13;100.00;100429.44;10168232;29;20561;-69
2021/03/15 01:24:46;;;;;;;17.50;8.25;;;;;;;5.10;100.00;100424.31;10167513;29;20082;-69
2021/03/15 01:29:49;;;;;;;15.05;9.75;;;;;;;5.06;100.00;100409.63;10183022;29;20052;-69
2021/03/15 01:34:51;;;;;;;18.25;11.38;;;;;;;5.07;100.00;100411.34;10183417;29;20096;-69
2021/03/15 01:39:52;;;;;;;24.83;11.35;;;;;;;5.07;100.00;100404.38;10183284;29;20040;-69
2021/03/15 01:44:53;;;;;;;26.13;9.50;;;;;;;5.03;100.00;100412.28;10183676;29;20054;-69
2021/03/15 01:49:55;;;;;;;23.67;10.15;;;;;;;5.00;100.00;100409.78;10181221;29;20127;-69
2021/03/15 01:54:56;;;;;;;16.73;8.07;;;;;;;4.92;100.00;100395.16;10181666;29;20048;-69
2021/03/15 01:59:58;;;;;;;10.63;4.65;;;;;;;4.86;100.00;100394.44;10182561;29;20076;-69
2021/03/15 02:05:00;;;;;;;8.05;3.70;;;;;;;4.87;100.00;100362.22;10177252;29;20120;-69
2021/03/15 02:10:02;;;;;;;5.80;3.25;;;;;;;4.82;100.00;100325.81;10162309;29;20094;-68
2021/03/15 02:15:28;;;;;;;9.25;3.95;;;;;;;4.82;100.00;100306.69;10143062;29;20040;-70
2021/03/15 02:21:01;;;;;;;5.90;3.75;;;;;;;4.81;100.00;100300.59;10127018;29;20064;-69
2021/03/15 02:26:02;;;;;;;8.88;4.40;;;;;;;4.79;100.00;100296.31;10142204;29;20059;-69
2021/03/15 02:31:26;;;;;;;11.93;5.18;;;;;;;4.77;100.00;100298.13;10181372;29;20104;-69
2021/03/15 02:36:35;;;;;;;9.40;5.93;;;;;;;4.80;100.00;100296.28;10180350;29;20462;-69
2021/03/15 02:41:39;;;;;;;13.77;6.78;;;;;;;4.79;100.00;100296.31;10182070;29;20048;-69
2021/03/15 02:46:44;;;;;;;11.82;7.00;;;;;;;4.81;100.00;100307.56;10180760;29;20078;-69
2021/03/15 02:51:48;;;;;;;11.75;7.03;;;;;;;4.84;100.00;100312.72;10180875;29;20048;-68
2021/03/15 02:56:52;;;;;;;12.97;6.70;;;;;;;4.87;100.00;100316.09;10180110;29;20048;-70
2021/03/15 03:01:54;;;;;;;10.75;8.80;;;;;;;4.85;100.00;100323.09;10181206;29;20107;-70
2021/03/15 03:06:57;;;;;;;10.27;6.00;;;;;;;4.83;100.00;100324.91;10178677;29;20048;-70
2021/03/15 03:11:59;;;;;;;12.25;7.35;;;;;;;4.86;100.00;100335.25;10179468;29;20059;-70
2021/03/15 03:17:02;;;;;;;11.52;6.90;;;;;;;4.87;100.00;100336.97;10179197;29;20055;-70
2021/03/15 03:22:05;;;;;;;8.60;7.47;;;;;;;4.85;100.00;100351.00;10180198;29;20089;-69
2021/03/15 03:27:07;;;;;;;9.98;6.35;;;;;;;4.87;100.00;100363.09;10167540;29;20048;-69
2021/03/15 03:32:08;;;;;;;11.10;8.27;;;;;;;4.91;100.00;100363.88;10140128;29;20060;-70
2021/03/15 03:37:09;;;;;;;14.00;7.78;;;;;;;4.99;100.00;100374.13;10139571;29;20045;-70
2021/03/15 03:42:11;;;;;;;11.35;7.10;;;;;;;5.07;100.00;100377.41;10154992;29;20398;-70
2021/03/15 03:47:12;;;;;;;11.60;6.78;;;;;;;5.09;100.00;100383.44;10138701;29;20479;-69
2021/03/15 03:52:14;;;;;;;12.35;7.30;;;;;;;5.15;100.00;100393.72;10139419;29;20506;-69
2021/03/15 03:57:21;;;;;;;12.48;9.10;;;;;;;5.15;100.00;100393.72;10138619;29;20055;-70
2021/03/15 04:02:26;;;;;;;19.73;11.55;;;;;;;5.11;100.00;100398.16;10139950;29;20044;-70
2021/03/15 04:07:29;;;;;;;23.08;14.50;;;;;;;5.16;100.00;100405.88;10137802;29;20036;-70
2021/03/15 04:12:33;;;;;;;19.92;12.68;;;;;;;5.15;100.00;100410.25;10139023;29;20040;-70
2021/03/15 04:17:37;;;;;;;16.42;11.07;;;;;;;5.14;100.00;100418.13;10138534;29;20049;-70
2021/03/15 04:22:46;;;;;;;15.17;10.17;;;;;;;5.10;100.00;100430.41;10122096;29;20048;-70
2021/03/15 04:27:51;;;;;;;16.20;12.02;;;;;;;5.15;100.00;100446.81;10138553;29;20123;-70
2021/03/15 04:32:54;;;;;;;15.65;10.80;;;;;;;5.10;100.00;100448.69;10137975;29;20052;-69
2021/03/15 04:37:58;;;;;;;19.75;12.93;;;;;;;5.11;100.00;100458.22;10138396;29;20047;-68
2021/03/15 04:43:00;;;;;;;17.67;12.20;;;;;;;5.05;100.00;100465.34;10138420;29;20056;-69
2021/03/15 04:48:05;;;;;;;18.05;12.07;;;;;;;5.05;100.00;100465.34;10137315;29;20454;-69
2021/03/15 04:53:06;;;;;;;15.13;11.77;;;;;;;4.98;100.00;100464.63;10138367;29;20459;-69
2021/03/15 04:58:10;;;;;;;16.60;11.80;;;;;;;4.94;100.00;100474.28;10136183;29;20060;-69
2021/03/15 05:03:17;;;;;;;15.68;11.55;;;;;;;4.94;100.00;100489.06;10137220;29;20056;-69
2021/03/15 05:08:23;;;;;;;20.42;12.80;;;;;;;4.96;100.00;100503.81;10137358;29;20045;-69
2021/03/15 05:13:25;;;;;;;14.90;11.70;;;;;;;4.91;100.00;100512.66;10136716;29;20052;-69
2021/03/15 05:18:28;;;;;;;17.73;12.10;;;;;;;4.85;100.00;100521.47;10137124;29;20415;-69
2021/03/15 05:23:31;;;;;;;15.55;11.30;;;;;;;4.83;100.00;100538.06;10136708;29;20072;-68
2021/03/15 05:28:34;;;;;;;12.93;9.90;;;;;;;4.70;100.00;100537.47;10137552;29;20055;-69
2021/03/15 05:33:37;;;;;;;13.45;10.38;;;;;;;4.60;100.00;100548.16;10137581;29;20061;-68
2021/03/15 05:38:38;;;;;;;10.93;9.40;;;;;;;4.52;100.00;100556.97;10142245;29;20394;-69
2021/03/15 05:43:55;;;;;;;12.23;9.55;;;;;;;4.46;100.00;100557.09;10143926;29;20064;-68
2021/03/15 05:49:32;;;;;;;10.90;8.80;;;;;;;4.45;100.00;100564.94;10143379;29;20048;-69
2021/03/15 05:55:04;;;;;;;12.43;9.63;;;;;;;4.51;100.00;100568.31;10165067;29;20057;-69
2021/03/15 06:00:11;;;;;;;12.40;9.65;;;;;;;4.41;100.00;100566.78;10143497;29;20048;-69
2021/03/15 06:05:27;;;;;;;13.25;10.57;;;;;;;4.46;100.00;100577.97;10143473;29;20051;-69
2021/03/15 06:10:47;;;;;;;15.75;11.60;;;;;;;4.53;100.00;100591.75;10143854;29;20104;-69
2021/03/15 06:15:48;;;;;;;15.65;11.20;;;;;;;4.53;100.00;100597.81;10142509;29;20076;-69
2021/03/15 06:20:50;;;;;;;11.75;9.75;;;;;;;4.53;100.00;100607.38;10142381;29;20071;-69
2021/03/15 06:25:52;;;;;;;12.75;9.85;;;;;;;4.47;100.00;100608.38;10142737;29;20041;-69
2021/03/15 06:30:54;;;;;;;11.27;9.20;;;;;;;4.53;100.00;100623.03;10141852;29;20179;-69
2021/03/15 06:36:04;;;;;;;10.10;9.02;;;;;;;4.55;100.00;100632.56;10142141;29;20135;-68
2021/03/15 06:41:06;;;;;;;11.73;9.38;;;;;;;4.63;100.00;100644.59;10142927;29;20048;-69
2021/03/15 06:46:08;;;;;;;13.13;9.23;;;;;;;4.66;100.00;100647.16;10140739;29;20041;-68
2021/03/15 06:51:09;;;;;;;11.73;8.27;;;;;;;4.79;100.00;100653.84;10157039;29;20043;-68
2021/03/15 06:56:13;;;;;;;10.98;8.55;;;;;;;4.80;100.00;100663.41;10177981;29;20414;-70
2021/03/15 07:01:25;;;;;;;13.00;9.05;;;;;;;4.97;100.00;100674.38;10178293;29;20071;-69
2021/03/15 07:06:34;;;;;;;10.65;8.68;;;;;;;5.40;100.00;100691.75;10177437;29;20055;-68
2021/03/15 07:11:36;;;;;;;12.07;8.88;;;;;;;5.78;100.00;100683.88;10161380;29;20087;-65
2021/03/15 07:16:37;;;;;;;12.63;8.77;;;;;;;6.81;100.00;100709.22;10176791;29;20056;-67
2021/03/15 07:21:41;;;;;;;10.60;9.10;;;;;;;6.52;100.00;100655.06;10178137;29;20505;-68
2021/03/15 07:26:46;;;;;;;12.38;9.57;;;;;;;6.36;100.00;100630.19;10176587;29;20103;-68
2021/03/15 07:31:49;;;;;;;11.63;8.80;;;;;;;6.39;100.00;100602.16;10176946;29;20052;-69
2021/03/15 07:36:55;;;;;;;9.90;8.45;;;;;;;6.32;100.00;100578.84;10163330;29;20347;-70
2021/03/15 07:41:58;;;;;;;10.25;7.68;;;;;;;6.72;100.00;100600.38;10177220;29;20051;-70
2021/03/15 07:47:04;;;;;;;9.80;6.88;;;;;;;8.60;100.00;100658.19;10168404;29;20044;-71
2021/03/15 07:52:08;;;;;;;12.00;7.63;;;;;;;8.53;100.00;100588.44;10177636;29;20107;-71
2021/03/15 07:57:12;;;;;;;10.50;7.32;;;;;;;9.24;100.00;100622.50;10175726;29;20051;-70
2021/03/15 08:02:19;;;;;;;8.63;6.40;;;;;;;10.09;100.00;100610.31;10177183;29;20044;-70
2021/03/15 08:07:23;;;;;;;11.93;7.25;;;;;;;10.52;100.00;100583.88;10170967;29;20382;-69
2021/03/15 08:12:30;;;;;;;9.25;6.10;;;;;;;11.35;94.26;100599.38;10176093;29;20052;-70
2021/03/15 08:17:36;;;;;;;10.25;7.70;;;;;;;9.33;96.41;100495.09;10174428;29;20083;-70
2021/03/15 08:22:41;;;;;;;10.13;6.55;;;;;;;8.84;97.76;100486.56;10175217;29;20086;-70
2021/03/15 08:27:43;;;;;;;9.93;6.85;;;;;;;8.52;100.00;100502.69;10174610;29;20044;-70
2021/03/15 08:32:45;;;;;;;11.18;7.40;;;;;;;9.70;100.00;100618.06;10175364;29;20056;-69
2021/03/15 08:38:00;;;;;;;14.00;6.82;;;;;;;10.87;94.44;100653.44;10175353;29;20079;-70
2021/03/15 08:43:22;;;;;;;10.27;6.88;;;;;;;10.67;87.00;100532.25;10175827;29;20044;-70
2021/03/15 08:48:32;;;;;;;10.70;7.07;;;;;;;8.43;95.70;100456.63;10174307;29;20497;-71
2021/03/15 08:53:37;;;;;;;10.80;7.82;;;;;;;7.28;100.00;100432.75;10174899;29;20055;-71
2021/03/15 08:58:41;;;;;;;;;;;;;;;6.98;100.00;100465.19;10171125;29;20055;-71
2021/03/15 09:04:02;;;;;;;10.00;7.72;;;;;;;6.85;100.00;100489.16;10158487;29;19923;-70
2021/03/15 09:09:09;;;;;;;12.32;7.25;;;;;;;9.56;100.00;100638.78;10174696;29;20059;-70
2021/03/15 09:14:13;;;;;;;10.13;8.25;;;;;;;8.29;100.00;100540.22;10182348;29;20052;-71
2021/03/15 09:19:22;;;;;;;12.88;7.88;;;;;;;7.60;100.00;100474.47;10180856;29;20450;-70
2021/03/15 09:24:47;;;;;;;11.45;6.32;;;;;;;7.76;100.00;100535.09;10181273;29;20052;-71
2021/03/15 09:30:01;;;;;;;10.33;6.43;;;;;;;7.55;100.00;100520.06;10181852;29;20052;-70
2021/03/15 09:35:27;;;;;;;14.90;6.85;;;;;;;9.31;100.00;100592.44;10181009;29;21379;-71
2021/03/15 09:40:36;;;;;;;;;;;;;;;8.18;100.00;100510.91;10181613;29;20381;-70
2021/03/15 09:46:00;;;;;;;12.98;6.40;;;;;;;8.54;100.00;100561.22;10178080;29;19942;-71
2021/03/15 09:51:04;;;;;;;11.02;5.47;;;;;;;11.78;89.80;100680.88;10179282;29;20050;-73
2021/03/15 09:56:25;;;;;;;9.15;4.47;;;;;;;12.42;78.61;100624.84;10173915;29;20056;-74
2021/03/15 10:01:33;;;;;;;8.85;3.58;;;;;;;13.31;73.78;100636.03;10162623;29;20063;-71
2021/03/15 10:07:06;;;;;;;9.18;4.25;;;;;;;12.68;73.34;100597.06;10173953;29;20478;-71
2021/03/15 10:12:43;;;;;;;7.43;3.85;;;;;;;12.45;73.03;100619.41;10178033;29;20363;-71
2021/03/15 10:18:16;;;;;;;7.28;4.03;;;;;;;13.98;69.55;100667.47;10163362;29;20131;-71
2021/03/15 10:23:23;;;;;;;10.48;3.85;;;;;;;11.49;71.34;100483.47;10178664;29;20474;-72
2021/03/15 10:28:29;;;;;;;8.88;3.45;;;;;;;9.89;75.68;100437.44;10178310;29;20044;-69
2021/03/15 10:33:50;;;;;;;9.65;4.00;;;;;;;9.70;79.61;100476.88;10165315;29;20056;-72
2021/03/15 10:38:55;;;;;;;7.28;3.60;;;;;;;9.47;82.16;100480.47;10162712;29;20401;-71
2021/03/15 10:43:57;;;;;;;9.02;4.05;;;;;;;8.67;84.97;100462.72;10175244;29;20056;-72
2021/03/15 10:49:23;;;;;;;13.23;4.60;;;;;;;7.07;92.70;100420.38;10177145;29;20056;-69
2021/03/15 10:54:35;;;;;;;8.05;2.45;;;;;;;5.36;100.00;100406.22;10173370;29;20119;-71
2021/03/15 10:59:38;;;;;;;6.07;2.25;;;;;;;5.67;100.00;100480.31;10160590;29;20523;-72
2021/03/15 11:04:52;;;;;;;4.15;1.67;;;;;;;10.01;100.00;100712.41;10172326;29;20055;-75
2021/03/15 11:10:13;;;;;;;5.78;2.13;;;;;;;10.90;93.03;100624.31;10176359;29;20075;-71
2021/03/15 11:15:29;;;;;;;5.78;2.40;;;;;;;10.75;92.81;100667.16;10176796;29;20040;-70
2021/03/15 11:20:37;;;;;;;7.68;2.47;;;;;;;12.97;82.25;100732.16;10177014;29;20107;-72
2021/03/15 11:25:40;;;;;;;8.20;3.15;;;;;;;13.85;74.79;100690.31;10160856;29;20090;-72
2021/03/15 11:30:48;;;;;;;7.38;2.47;;;;;;;13.85;72.01;100635.56;10176801;29;20055;-72
2021/03/15 11:35:54;;;;;;;9.25;2.30;;;;;;;14.25;72.26;100691.53;10175553;29;20135;-73
2021/03/15 11:41:01;;;;;;;7.40;2.50;;;;;;;13.95;73.18;100672.97;10176247;29;20075;-72
2021/03/15 11:46:05;;;;;;;6.78;2.78;;;;;;;13.37;72.37;100585.41;10174910;29;20090;-72
2021/03/15 11:51:10;;;;;;;7.88;2.60;;;;;;;11.97;74.57;100538.25;10175971;29;20048;-72
2021/03/15 11:56:23;;;;;;;7.03;2.80;;;;;;;11.93;75.76;100570.16;10174553;29;20048;-70
2021/03/15 12:01:25;;;;;;;5.45;2.20;;;;;;;10.83;78.32;100506.06;10167122;29;20084;-70
2021/03/15 12:06:28;;;;;;;9.13;2.38;;;;;;;10.79;79.70;100558.06;10147403;29;20052;-76
2021/03/15 12:11:39;;;;;;;6.30;2.80;;;;;;;10.21;81.92;100505.34;10173727;29;20051;-70
2021/03/15 12:16:41;;;;;;;7.53;2.50;;;;;;;9.86;82.30;100543.72;10173535;29;20044;-71
2021/03/15 12:21:43;;;;;;;8.10;2.63;;;;;;;11.04;77.59;100589.41;10175001;29;20052;-71
2021/03/15 12:26:51;;;;;;;5.25;1.88;;;;;;;12.25;73.77;100605.50;10174632;29;20068;-70
2021/03/15 12:32:00;;;;;;;4.13;1.60;;;;;;;10.05;76.64;100498.16;10159215;29;20056;-71
2021/03/15 12:37:03;;;;;;;5.13;1.70;;;;;;;9.57;78.69;100501.97;10173164;29;20422;-71
2021/03/15 12:42:06;;;;;;;4.68;1.30;;;;;;;9.07;79.52;100483.88;10174056;29;20478;-70
2021/03/15 12:47:15;;;;;;;5.72;1.65;;;;;;;11.09;77.26;100639.28;10172034;29;20040;-71
2021/03/15 12:52:20;;;;;;;8.15;1.67;;;;;;;10.63;76.16;100549.97;10174082;29;20478;-70
2021/03/15 12:57:29;;;;;;;8.93;2.75;;;;;;;10.17;76.76;100534.50;10172736;29;20422;-71
2021/03/15 13:02:36;;;;;;;6.55;3.08;;;;;;;9.28;81.90;100487.41;10154423;29;20052;-70
2021/03/15 13:07:38;;;;;;;8.20;2.45;;;;;;;9.51;83.10;100573.25;10173478;29;20048;-72
2021/03/15 13:12:54;;;;;;;8.80;2.20;;;;;;;10.95;79.53;100647.84;10173080;29;20410;-71
2021/03/15 13:18:00;;;;;;;9.63;2.67;;;;;;;11.67;75.97;100677.00;10172370;29;20051;-72
2021/03/15 13:23:10;;;;;;;5.47;1.80;;;;;;;10.66;74.25;100575.34;10188911;29;20094;-71
2021/03/15 13:28:23;;;;;;;6.30;2.10;;;;;;;9.57;75.09;100504.59;10162867;29;20063;-71
2021/03/15 13:33:25;;;;;;;5.30;2.08;;;;;;;9.45;75.66;100555.94;10171893;29;20087;-71
2021/03/15 13:38:35;;;;;;;6.40;2.70;;;;;;;9.80;74.99;100561.50;10171033;29;20473;-72
2021/03/15 13:43:39;;;;;;;3.87;1.67;;;;;;;10.14;73.79;100580.22;10164933;29;20048;-72
2021/03/15 13:48:47;;;;;;;10.75;2.40;;;;;;;10.19;73.50;100573.03;10167671;29;20155;-73
2021/03/15 13:53:49;;;;;;;10.35;2.83;;;;;;;10.29;74.73;100586.66;10166144;29;20112;-71
2021/03/15 13:58:50;;;;;;;9.15;2.30;;;;;;;10.52;74.37;100588.28;10175557;29;20072;-71
2021/03/15 14:03:55;;;;;;;5.50;2.10;;;;;;;10.56;74.05;100618.81;10176351;29;20548;-71
2021/03/15 14:09:07;;;;;;;7.30;2.45;;;;;;;10.67;73.03;100584.09;10177261;29;20052;-71
2021/03/15 14:14:13;;;;;;;6.63;1.90;;;;;;;10.43;71.98;100567.63;10161425;29;20074;-72
2021/03/15 14:19:20;;;;;;;6.00;1.70;;;;;;;10.12;72.65;100547.88;10177998;29;20498;-71
2021/03/15 14:24:30;;;;;;;6.88;2.20;;;;;;;9.32;74.96;100530.19;10174232;29;20131;-71
2021/03/15 14:29:38;;;;;;;7.43;2.40;;;;;;;9.04;79.61;100556.69;10176789;29;20052;-71
2021/03/15 14:34:43;;;;;;;8.35;2.25;;;;;;;9.28;83.55;100612.75;10178368;29;20394;-72
2021/03/15 14:40:03;;;;;;;5.70;2.30;;;;;;;9.19;84.11;100607.84;10178641;29;20066;-76
2021/03/15 14:45:05;;;;;;;8.88;2.45;;;;;;;9.24;85.80;100640.91;10156613;29;20115;-77
2021/03/15 14:50:25;;;;;;;16.52;3.20;;;;;;;9.55;85.58;100672.13;10186083;29;20056;-73
2021/03/15 14:55:45;;;;;;;7.28;2.20;;;;;;;9.96;83.05;100707.31;10176541;29;20052;-72
2021/03/15 15:00:47;;;;;;;6.07;2.47;;;;;;;9.42;82.93;100647.22;10177732;29;20063;-73
2021/03/15 15:05:52;;;;;;;4.65;2.17;;;;;;;8.82;84.56;100616.25;10176079;29;20048;-72
2021/03/15 15:10:53;;;;;;;6.80;2.80;;;;;;;8.01;89.72;100587.59;10175854;29;20059;-72
2021/03/15 15:15:55;;;;;;;7.15;2.63;;;;;;;7.78;99.97;100646.06;10160671;29;20374;-74
2021/03/15 15:21:01;;;;;;;6.68;2.60;;;;;;;7.83;100.00;100703.59;10159570;29;20084;-74
2021/03/15 15:26:09;;;;;;;7.22;2.15;;;;;;;7.86;100.00;100737.63;10173233;29;20071;-73
2021/03/15 15:31:10;;;;;;;9.82;3.05;;;;;;;7.68;100.00;100740.78;10176575;29;20044;-77
2021/03/15 15:36:12;;;;;;;7.13;2.45;;;;;;;7.82;100.00;100773.56;10174289;29;20055;-75
2021/03/15 15:41:29;;;;;;;6.30;2.20;;;;;;;6.92;100.00;100714.19;10176693;29;20079;-70
2021/03/15 15:46:30;;;;;;;6.90;1.60;;;;;;;5.93;100.00;100686.19;10177980;29;20350;-70
2021/03/15 15:51:31;;;;;;;3.78;1.40;;;;;;;5.88;100.00;100718.56;10176839;29;20407;-71
2021/03/15 15:56:37;;;;;;;4.22;1.27;;;;;;;6.14;100.00;100765.03;10190206;29;20062;-71
2021/03/15 16:01:39;;;;;;;4.28;1.40;;;;;;;6.00;100.00;100767.97;10176244;29;20056;-70
2021/03/15 16:06:41;;;;;;;4.72;1.42;;;;;;;6.11;100.00;100810.41;10178430;29;20044;-71
2021/03/15 16:11:42;;;;;;;5.60;1.50;;;;;;;6.07;100.00;100804.41;10191826;29;20051;-70
2021/03/15 16:16:43;;;;;;;6.20;1.60;;;;;;;5.92;100.00;100810.00;10175942;29;20077;-71
2021/03/15 16:21:45;;;;;;;6.50;1.90;;;;;;;5.98;100.00;100837.75;10180480;29;20052;-71
2021/03/15 16:26:46;;;;;;;7.30;3.42;;;;;;;6.15;100.00;100856.53;10176360;29;20036;-71
2021/03/15 16:31:47;;;;;;;6.57;2.28;;;;;;;6.00;100.00;100849.91;10171968;29;20470;-70
2021/03/15 16:36:48;;;;;;;8.85;2.10;;;;;;;5.87;100.00;100851.00;10176469;29;20068;-71
2021/03/15 16:41:50;;;;;;;5.68;2.35;;;;;;;5.87;100.00;100873.69;10176448;29;20040;-70
2021/03/15 16:46:51;;;;;;;10.60;2.78;;;;;;;6.05;100.00;100891.63;10191548;29;20052;-71
2021/03/15 16:52:04;;;;;;;12.40;3.28;;;;;;;6.05;100.00;100896.88;10177180;29;20053;-71
2021/03/15 16:57:06;;;;;;;8.85;3.08;;;;;;;6.05;100.00;100895.09;10175630;29;20048;-71
2021/03/15 17:02:09;;;;;;;13.77;2.95;;;;;;;5.94;100.00;100893.63;10177072;29;20056;-71
2021/03/15 17:07:10;;;;;;;10.55;2.88;;;;;;;5.98;100.00;100908.34;10178674;29;20045;-71
2021/03/15 17:12:12;;;;;;;12.23;2.85;;;;;;;6.10;100.00;100923.81;10193487;29;20052;-71
2021/03/15 17:17:14;;;;;;;10.52;2.80;;;;;;;5.94;100.00;100917.16;10176506;29;20455;-71
2021/03/15 17:22:31;;;;;;;7.30;3.47;;;;;;;5.76;100.00;100909.66;10178179;29;20048;-71
2021/03/15 17:27:34;;;;;;;11.20;3.22;;;;;;;5.85;100.00;100940.84;10176356;29;20047;-72
2021/03/15 17:32:36;;;;;;;9.60;2.85;;;;;;;5.95;100.00;100965.94;10162803;29;20052;-71
2021/03/15 17:37:38;;;;;;;9.60;3.00;;;;;;;5.98;100.00;100985.06;10143361;29;20044;-71
2021/03/15 17:42:39;;;;;;;9.32;2.83;;;;;;;5.84;100.00;100981.81;10143822;29;20060;-71
2021/03/15 17:47:41;;;;;;;9.88;3.50;;;;;;;5.66;100.00;100977.78;10142559;29;20037;-71
2021/03/15 17:52:51;;;;;;;10.07;4.03;;;;;;;5.56;100.00;100983.19;10144222;29;20080;-71
2021/03/15 17:57:53;;;;;;;10.38;3.22;;;;;;;5.56;100.00;100996.25;10143240;29;20040;-71
2021/03/15 18:02:54;;;;;;;9.98;3.28;;;;;;;5.41;100.00;100992.16;10142157;29;20056;-71
2021/03/15 18:07:57;;;;;;;13.48;3.55;;;;;;;5.36;100.00;101011.44;10143226;29;20049;-71
2021/03/15 18:12:58;;;;;;;17.20;5.32;;;;;;;5.37;100.00;101020.97;10143224;29;20063;-70
2021/03/15 18:18:15;;;;;;;16.35;4.50;;;;;;;5.28;100.00;101022.84;10141928;29;20071;-71
2021/03/15 18:23:19;;;;;;;13.15;4.47;;;;;;;5.20;100.00;101023.84;10143192;29;20108;-71
2021/03/15 18:28:20;;;;;;;14.95;7.55;;;;;;;5.13;100.00;101030.06;10142259;29;20403;-71
2021/03/15 18:33:21;;;;;;;9.68;4.07;;;;;;;4.99;100.00;101022.44;10141563;29;20423;-70
2021/03/15 18:38:22;;;;;;;12.23;3.72;;;;;;;4.99;100.00;101039.84;10142530;29;20059;-71
2021/03/15 18:43:27;;;;;;;;;;;;;;;4.99;100.00;101059.00;10142629;29;20074;-71
2021/03/15 18:48:28;;;;;;;12.23;3.40;;;;;;;5.13;100.00;101072.72;10141338;29;20256;-71
2021/03/15 18:53:37;;;;;;;11.48;3.15;;;;;;;5.03;100.00;101065.88;10140962;29;20062;-71
2021/03/15 18:58:38;;;;;;;15.23;3.50;;;;;;;5.07;100.00;101082.38;10141183;29;20052;-71
2021/03/15 19:03:40;;;;;;;8.73;3.38;;;;;;;5.06;100.00;101097.19;10140655;29;20049;-71
2021/03/15 19:08:43;;;;;;;9.20;3.25;;;;;;;5.04;100.00;101112.00;10141139;29;20036;-71
2021/03/15 19:13:44;;;;;;;9.70;3.83;;;;;;;5.09;100.00;101117.19;10140938;29;20041;-71
2021/03/15 19:18:45;;;;;;;11.07;3.33;;;;;;;5.14;100.00;101126.66;10145738;29;20052;-71
2021/03/15 19:23:58;;;;;;;10.32;3.30;;;;;;;5.11;100.00;101131.06;10145150;29;20048;-71
2021/03/15 19:28:59;;;;;;;8.00;3.45;;;;;;;4.95;100.00;101126.03;10179131;29;20040;-71
2021/03/15 19:34:00;;;;;;;13.68;4.20;;;;;;;4.84;100.00;101134.91;10179479;29;20044;-71
2021/03/15 19:39:04;;;;;;;12.38;6.07;;;;;;;4.72;100.00;101137.66;10174394;29;20097;-71
2021/03/15 19:44:05;;;;;;;9.88;4.97;;;;;;;4.82;100.00;101155.81;10139646;29;20051;-71
2021/03/15 19:49:10;;;;;;;10.50;5.05;;;;;;;4.93;100.00;101166.13;10139317;29;20067;-71
2021/03/15 19:54:22;;;;;;;11.63;5.35;;;;;;;5.06;100.00;101183.34;10139061;29;20053;-71
2021/03/15 19:59:23;;;;;;;12.77;4.68;;;;;;;5.10;100.00;101185.06;10140704;29;20470;-71
2021/03/15 20:04:24;;;;;;;18.30;7.20;;;;;;;5.12;100.00;101192.84;10193189;29;20400;-71
2021/03/15 20:09:27;;;;;;;16.13;5.47;;;;;;;5.13;100.00;101195.44;10177612;29;20067;-72
2021/03/15 20:14:28;;;;;;;11.85;4.57;;;;;;;5.03;100.00;101206.88;10151939;29;20085;-70
2021/03/15 20:19:30;;;;;;;20.45;5.03;;;;;;;4.99;100.00;101217.41;10136840;29;20070;-71
2021/03/15 20:24:43;;;;;;;19.50;5.72;;;;;;;4.94;100.00;101214.81;10138175;29;20048;-71
2021/03/15 20:29:44;;;;;;;15.32;5.13;;;;;;;4.60;100.00;101203.06;10160570;29;20055;-71
2021/03/15 20:34:46;;;;;;;18.77;5.90;;;;;;;4.69;100.00;101240.31;10166548;29;20175;-72
2021/03/15 20:39:49;;;;;;;19.13;6.57;;;;;;;4.72;100.00;101255.09;10166622;29;20048;-70
2021/03/15 20:44:50;;;;;;;26.63;9.65;;;;;;;4.67;100.00;101260.38;10175352;29;20055;-70
2021/03/15 20:49:51;;;;;;;23.20;6.57;;;;;;;4.71;100.00;101269.03;10175381;29;20409;-70
2021/03/15 20:55:09;;;;;;;16.88;6.97;;;;;;;4.76;100.00;101272.47;10175695;29;20119;-70
2021/03/15 21:00:14;;;;;;;20.70;5.35;;;;;;;4.69;100.00;101279.47;10174453;29;20059;-71
2021/03/15 21:05:19;;;;;;;19.00;5.38;;;;;;;4.62;100.00;101298.69;10175611;29;20115;-72
2021/03/15 21:10:22;;;;;;;17.45;6.00;;;;;;;4.71;100.00;101284.69;10181670;29;20063;-71
2021/03/15 21:15:23;;;;;;;20.00;6.85;;;;;;;4.69;100.00;101292.53;10181432;29;20055;-71
2021/03/15 21:20:27;;;;;;;22.17;7.47;;;;;;;4.71;100.00;101300.34;10181980;29;20068;-71
2021/03/15 21:25:30;;;;;;;25.20;8.50;;;;;;;4.77;100.00;101310.75;10180162;29;20080;-71
2021/03/15 21:30:35;;;;;;;24.00;7.07;;;;;;;4.73;100.00;101301.19;10180931;29;20044;-71
2021/03/15 21:35:39;;;;;;;20.23;6.72;;;;;;;4.74;100.00;101306.41;10180466;29;20367;-71
2021/03/15 21:40:40;;;;;;;19.52;6.50;;;;;;;4.71;100.00;101305.56;10195620;29;20047;-72
2021/03/15 21:45:42;;;;;;;15.82;6.35;;;;;;;4.65;100.00;101297.78;10159848;29;618555;-71
2021/03/15 21:50:45;;;;;;;23.98;6.00;;;;;;;4.61;100.00;101298.69;10183524;29;20534;-72
2021/03/15 21:55:53;;;;;;;22.70;6.00;;;;;;;4.65;100.00;101310.84;10181460;29;20051;-72
2021/03/15 22:00:55;;;;;;;22.80;7.53;;;;;;;4.77;100.00;101310.75;10182578;29;20115;-71
2021/03/15 22:05:57;;;;;;;17.95;5.63;;;;;;;4.83;100.00;101319.38;10182664;29;20048;-71
2021/03/15 22:11:00;;;;;;;19.63;6.05;;;;;;;4.88;100.00;101317.59;10182168;29;20449;-71
2021/03/15 22:16:01;;;;;;;20.73;6.13;;;;;;;4.88;100.00;101309.75;10181699;29;20037;-71
2021/03/15 22:21:02;;;;;;;15.20;5.18;;;;;;;4.88;100.00;101303.66;10182167;29;20047;-71
2021/03/15 22:26:19;;;;;;;20.27;7.43;;;;;;;4.91;100.00;101309.72;10181061;29;20071;-71
2021/03/15 22:31:20;;;;;;;25.83;7.72;;;;;;;4.91;100.00;101307.13;10181937;29;20518;-71
2021/03/15 22:36:21;;;;;;;24.27;7.30;;;;;;;4.96;100.00;101322.72;10164774;29;20059;-71
2021/03/15 22:41:22;;;;;;;21.38;6.85;;;;;;;4.91;100.00;101309.72;10167826;29;20108;-71
2021/03/15 22:46:24;;;;;;;19.92;5.95;;;;;;;4.91;100.00;101317.56;10172756;29;20048;-71
2021/03/15 22:51:27;;;;;;;18.88;5.07;;;;;;;4.80;100.00;101306.34;10181388;29;20048;-71
2021/03/15 22:56:39;;;;;;;20.30;5.88;;;;;;;4.78;100.00;101317.66;10179806;29;20430;-70
2021/03/15 23:01:42;;;;;;;17.58;5.32;;;;;;;4.76;100.00;101337.72;10180330;29;20131;-70
2021/03/15 23:06:44;;;;;;;19.17;5.65;;;;;;;4.70;100.00;101338.63;10166048;29;20455;-71
2021/03/15 23:11:51;;;;;;;26.08;7.07;;;;;;;4.62;100.00;101342.19;10139662;29;20067;-71
2021/03/15 23:16:52;;;;;;;23.40;6.85;;;;;;;4.67;100.00;101356.94;10140039;29;20059;-71